createdAt,value
2018-02-05T00:00:00.066Z,102076.76
2018-02-05T00:02:32.055Z,102069.50
2018-02-05T00:05:03.995Z,102075.95
2018-02-05T00:07:36.366Z,102082.13
2018-02-05T00:10:08.745Z,102087.37
2018-02-05T00:12:42.883Z,102089.29
2018-02-05T00:15:17.998Z,102083.13
2018-02-05T00:17:49.407Z,102086.59
2018-02-05T00:20:20.619Z,102093.59
2018-02-05T00:22:53.289Z,102095.08
2018-02-05T00:25:25.079Z,102083.16
2018-02-05T00:27:56.318Z,102099.36
2018-02-05T00:30:27.726Z,102095.16
2018-02-05T00:33:01.192Z,102099.16
2018-02-05T00:35:32.648Z,102100.69
2018-02-05T00:38:04.470Z,102099.23
2018-02-05T00:40:35.617Z,102094.95
2018-02-05T00:43:08.119Z,102105.95
2018-02-05T00:45:38.887Z,102079.01
2018-02-05T00:48:10.453Z,102101.95
2018-02-05T00:50:50.042Z,102097.06
2018-02-05T00:53:22.242Z,102088.86
2018-02-05T00:55:54.386Z,102100.80
2018-02-05T00:58:25.796Z,102106.90
2018-02-05T01:00:58.341Z,102106.64
2018-02-05T01:03:29.502Z,102111.18
2018-02-05T01:06:00.644Z,102108.91
2018-02-05T01:08:31.773Z,102117.59
2018-02-05T01:11:03.380Z,102118.99
2018-02-05T01:13:38.764Z,102111.00
2018-02-05T01:16:10.465Z,102116.94
2018-02-05T01:18:41.206Z,102110.83
2018-02-05T01:21:12.058Z,102112.95
2018-02-05T01:23:43.505Z,102108.48
2018-02-05T01:26:15.404Z,102110.95
2018-02-05T01:28:46.386Z,102108.50
2018-02-05T01:33:59.920Z,102102.36
2018-02-05T01:36:30.660Z,102102.95
2018-02-05T01:39:02.102Z,102099.69
2018-02-05T01:41:33.305Z,102096.28
2018-02-05T01:44:05.300Z,102096.20
2018-02-05T01:46:36.260Z,102110.06
2018-02-05T01:49:07.142Z,102099.12
2018-02-05T01:51:37.928Z,102099.38
2018-02-05T01:54:08.674Z,102097.06
2018-02-05T01:56:39.786Z,102096.68
2018-02-05T01:59:11.012Z,102085.76
2018-02-05T02:01:43.197Z,102077.64
2018-02-05T02:04:13.996Z,102088.93
2018-02-05T02:06:45.083Z,102090.17
2018-02-05T02:09:15.834Z,102083.13
2018-02-05T02:11:46.770Z,102082.59
2018-02-05T02:14:17.544Z,102082.55
2018-02-05T02:16:49.129Z,102082.00
2018-02-05T02:19:20.615Z,102081.39
2018-02-05T02:21:51.479Z,102072.39
2018-02-05T02:24:22.363Z,102081.11
2018-02-05T02:26:53.668Z,102084.02
2018-02-05T02:29:24.844Z,102085.23
2018-02-05T02:31:55.818Z,102086.52
2018-02-05T02:34:26.477Z,102077.60
2018-02-05T02:36:56.786Z,102078.13
2018-02-05T02:39:27.624Z,102087.42
2018-02-05T02:41:59.758Z,102089.92
2018-02-05T02:44:30.637Z,102085.05
2018-02-05T02:47:03.019Z,102090.00
2018-02-05T02:49:34.461Z,102095.78
2018-02-05T02:52:06.865Z,102085.65
2018-02-05T02:54:51.469Z,102086.81
2018-02-05T02:57:24.318Z,102094.37
2018-02-05T02:59:56.060Z,102092.18
2018-02-05T03:02:27.087Z,102099.48
2018-02-05T03:04:59.395Z,102098.32
2018-02-05T03:07:30.266Z,102091.41
2018-02-05T03:10:00.638Z,102083.19
2018-02-05T03:12:35.558Z,102093.30
2018-02-05T03:15:16.613Z,102098.34
2018-02-05T03:17:47.766Z,102102.50
2018-02-05T03:20:18.633Z,102106.87
2018-02-05T03:22:49.615Z,102098.72
2018-02-05T03:25:21.146Z,102101.84
2018-02-05T03:27:51.720Z,102104.72
2018-02-05T03:30:22.706Z,102110.22
2018-02-05T03:32:53.132Z,102113.59
2018-02-05T03:35:26.091Z,102115.76
2018-02-05T03:37:57.533Z,102106.52
2018-02-05T03:40:28.969Z,102109.00
2018-02-05T03:43:00.645Z,102115.78
2018-02-05T03:45:31.579Z,102117.76
2018-02-05T03:48:09.209Z,102117.25
2018-02-05T03:50:41.425Z,102123.09
2018-02-05T03:53:12.352Z,102124.16
2018-02-05T03:55:45.248Z,102126.30
2018-02-05T03:58:17.593Z,102133.59
2018-02-05T04:00:49.485Z,102141.18
2018-02-05T04:03:22.029Z,102135.34
2018-02-05T04:05:53.090Z,102149.47
2018-02-05T04:08:25.648Z,102146.38
2018-02-05T04:10:57.348Z,102147.33
2018-02-05T04:13:29.679Z,102146.61
2018-02-05T04:16:01.824Z,102146.98
2018-02-05T04:18:38.716Z,102154.31
2018-02-05T04:21:09.780Z,102153.03
2018-02-05T04:23:42.054Z,102154.15
2018-02-05T04:26:13.786Z,102150.35
2018-02-05T04:28:44.774Z,102156.63
2018-02-05T04:31:16.304Z,102153.98
2018-02-05T04:33:48.429Z,102150.35
2018-02-05T04:36:19.487Z,102152.84
2018-02-05T04:38:50.130Z,102152.92
2018-02-05T04:41:21.110Z,102165.30
2018-02-05T04:43:52.405Z,102159.87
2018-02-05T04:46:24.530Z,102153.27
2018-02-05T04:48:56.572Z,102159.84
2018-02-05T04:51:39.341Z,102162.08
2018-02-05T04:54:11.784Z,102162.58
2018-02-05T04:56:43.704Z,102169.92
2018-02-05T04:59:14.185Z,102167.47
2018-02-05T05:01:45.758Z,102167.94
2018-02-05T05:04:16.777Z,102171.12
2018-02-05T05:06:48.026Z,102168.67
2018-02-05T05:09:18.720Z,102161.36
2018-02-05T05:11:49.083Z,102165.52
2018-02-05T05:14:19.916Z,102163.81
2018-02-05T05:16:53.649Z,102170.47
2018-02-05T05:19:24.387Z,102165.40
2018-02-05T05:21:54.989Z,102153.66
2018-02-05T05:24:25.936Z,102159.75
2018-02-05T05:26:56.536Z,102145.53
2018-02-05T05:29:26.967Z,102166.69
2018-02-05T05:31:58.154Z,102168.47
2018-02-05T05:34:28.816Z,102165.45
2018-02-05T05:37:00.431Z,102169.17
2018-02-05T05:39:32.541Z,102167.75
2018-02-05T05:42:02.816Z,102169.98
2018-02-05T05:44:35.283Z,102173.11
2018-02-05T05:47:06.720Z,102180.13
2018-02-05T05:49:38.459Z,102178.86
2018-02-05T05:52:09.808Z,102174.60
2018-02-05T05:54:40.757Z,102179.73
2018-02-05T05:57:11.211Z,102181.77
2018-02-05T05:59:41.932Z,102176.61
2018-02-05T06:02:14.327Z,102190.18
2018-02-05T06:04:45.253Z,102183.74
2018-02-05T06:07:16.456Z,102193.41
2018-02-05T06:09:47.998Z,102186.33
2018-02-05T06:12:19.063Z,102192.56
2018-02-05T06:14:50.141Z,102168.86
2018-02-05T06:17:22.013Z,102188.73
2018-02-05T06:19:57.565Z,102186.20
2018-02-05T06:22:29.311Z,102194.38
2018-02-05T06:25:00.405Z,102193.88
2018-02-05T06:27:31.202Z,102196.56
2018-02-05T06:30:04.734Z,102186.23
2018-02-05T06:32:36.411Z,102197.48
2018-02-05T06:35:08.946Z,102193.45
2018-02-05T06:37:41.875Z,102189.92
2018-02-05T06:40:15.520Z,102195.25
2018-02-05T06:42:47.702Z,102195.56
2018-02-05T06:45:19.838Z,102194.81
2018-02-05T06:47:51.201Z,102177.25
2018-02-05T06:50:31.068Z,102199.41
2018-02-05T06:53:45.613Z,102182.25
2018-02-05T06:56:27.333Z,102209.53
2018-02-05T06:59:00.269Z,102204.39
2018-02-05T07:01:31.953Z,102209.27
2018-02-05T07:04:03.148Z,102205.73
2018-02-05T07:06:33.399Z,102205.97
2018-02-05T07:09:06.252Z,102208.50
2018-02-05T07:11:37.898Z,102214.73
2018-02-05T07:14:09.959Z,102202.16
2018-02-05T07:16:43.785Z,102225.11
2018-02-05T07:19:16.289Z,102213.58
2018-02-05T07:21:50.559Z,102223.70
2018-02-05T07:24:29.204Z,102222.56
2018-02-05T07:27:02.847Z,102227.33
2018-02-05T07:29:35.048Z,102226.39
2018-02-05T07:32:17.662Z,102228.94
2018-02-05T07:34:48.704Z,102213.50
2018-02-05T07:37:19.640Z,102218.59
2018-02-05T07:42:20.189Z,102222.84
2018-02-05T07:44:57.742Z,102221.36
2018-02-05T07:47:30.426Z,102222.18
2018-02-05T07:50:01.393Z,102221.77
2018-02-05T07:52:32.023Z,102230.48
2018-02-05T07:55:05.442Z,102227.87
2018-02-05T07:57:38.434Z,102228.72
2018-02-05T08:00:11.514Z,102234.88
2018-02-05T08:02:44.997Z,102219.68
2018-02-05T08:05:17.227Z,102243.05
2018-02-05T08:07:49.937Z,102237.20
2018-02-05T08:10:24.199Z,102235.89
2018-02-05T08:12:58.555Z,102237.96
2018-02-05T08:15:30.671Z,102234.26
2018-02-05T08:18:02.190Z,102234.75
2018-02-05T08:20:32.611Z,102235.67
2018-02-05T08:23:03.575Z,102238.20
2018-02-05T08:25:35.416Z,102234.56
2018-02-05T08:28:06.925Z,102238.58
2018-02-05T08:30:39.372Z,102236.08
2018-02-05T08:33:13.198Z,102239.03
2018-02-05T08:35:44.165Z,102229.17
2018-02-05T08:38:16.475Z,102238.02
2018-02-05T08:40:48.432Z,102227.84
2018-02-05T08:43:22.512Z,102229.28
2018-02-05T08:45:58.755Z,102236.86
2018-02-05T08:48:31.040Z,102235.94
2018-02-05T08:51:09.508Z,102223.73
2018-02-05T08:54:07.190Z,102230.88
2018-02-05T08:56:39.753Z,102234.84
2018-02-05T08:59:11.027Z,102231.44
2018-02-05T09:01:53.938Z,102229.20
2018-02-05T09:04:25.578Z,102227.44
2018-02-05T09:06:57.767Z,102232.41
2018-02-05T09:09:29.656Z,102226.49
2018-02-05T09:12:00.514Z,102224.37
2018-02-05T09:14:35.784Z,102216.19
2018-02-05T09:17:10.609Z,102216.72
2018-02-05T09:19:41.388Z,102213.90
2018-02-05T09:22:12.735Z,102214.72
2018-02-05T09:24:43.889Z,102212.94
2018-02-05T09:29:57.961Z,102214.75
2018-02-05T09:32:29.079Z,102189.73
2018-02-05T09:34:59.791Z,102207.22
2018-02-05T09:37:32.251Z,102205.61
2018-02-05T09:40:04.760Z,102199.92
2018-02-05T09:42:36.634Z,102208.11
2018-02-05T09:45:08.274Z,102202.84
2018-02-05T09:47:39.578Z,102202.49
2018-02-05T09:50:11.936Z,102198.97
2018-02-05T09:52:44.615Z,102200.30
2018-02-05T09:55:15.747Z,102184.67
2018-02-05T09:57:47.445Z,102203.13
2018-02-05T10:00:19.912Z,102204.29
2018-02-05T10:02:51.784Z,102202.54
2018-02-05T10:05:22.279Z,102198.41
2018-02-05T10:07:55.182Z,102192.52
2018-02-05T10:10:26.922Z,102195.03
2018-02-05T10:12:58.633Z,102193.34
2018-02-05T10:15:29.868Z,102192.13
2018-02-05T10:20:28.812Z,102188.77
2018-02-05T10:23:00.316Z,102193.53
2018-02-05T10:25:31.964Z,102180.44
2018-02-05T10:28:03.397Z,102186.08
2018-02-05T10:30:35.404Z,102184.82
2018-02-05T10:33:06.368Z,102182.41
2018-02-05T10:35:37.715Z,102187.73
2018-02-05T10:38:08.471Z,102184.53
2018-02-05T10:40:43.740Z,102173.14
2018-02-05T10:43:14.416Z,102174.66
2018-02-05T10:45:46.096Z,102154.53
2018-02-05T10:48:25.550Z,102169.28
2018-02-05T10:50:57.385Z,102166.22
2018-02-05T10:53:29.619Z,102160.84
2018-02-05T10:56:00.308Z,102149.36
2018-02-05T10:58:33.945Z,102158.98
2018-02-05T11:01:05.852Z,102137.80
2018-02-05T11:03:37.737Z,102150.20
2018-02-05T11:06:08.079Z,102145.90
2018-02-05T11:08:39.268Z,102143.72
2018-02-05T11:11:10.647Z,102098.64
2018-02-05T11:13:41.542Z,102147.12
2018-02-05T11:16:12.903Z,102139.05
2018-02-05T11:18:43.936Z,102133.31
2018-02-05T11:21:14.545Z,102135.98
2018-02-05T11:23:46.018Z,102138.39
2018-02-05T11:26:16.163Z,102138.37
2018-02-05T11:28:46.648Z,102135.34
2018-02-05T11:31:17.474Z,102136.22
2018-02-05T11:33:48.906Z,102130.69
2018-02-05T11:36:20.955Z,102124.27
2018-02-05T11:38:52.386Z,102114.99
2018-02-05T11:41:22.910Z,102117.08
2018-02-05T11:43:54.090Z,102112.06
2018-02-05T11:46:25.505Z,102121.46
2018-02-05T11:48:56.288Z,102119.25
2018-02-05T11:51:27.206Z,102111.19
2018-02-05T11:53:57.582Z,102104.41
2018-02-05T11:56:28.926Z,102115.48
2018-02-05T11:59:01.475Z,102107.74
2018-02-05T12:01:32.798Z,102099.98
2018-02-05T12:04:05.127Z,102100.79
2018-02-05T12:06:36.861Z,102097.70
2018-02-05T12:09:08.423Z,102089.23
2018-02-05T12:11:39.499Z,102099.13
2018-02-05T12:14:10.467Z,102089.52
2018-02-05T12:16:42.314Z,102092.85
2018-02-05T12:19:13.309Z,102090.05
2018-02-05T12:21:44.340Z,102082.11
2018-02-05T12:24:17.519Z,102088.56
2018-02-05T12:26:48.247Z,102079.18
2018-02-05T12:29:19.453Z,102084.23
2018-02-05T12:31:51.454Z,102074.70
2018-02-05T12:34:22.216Z,102074.14
2018-02-05T12:36:54.142Z,102067.14
2018-02-05T12:39:25.297Z,102072.15
2018-02-05T12:41:57.308Z,102072.23
2018-02-05T12:44:28.592Z,102064.39
2018-02-05T12:47:14.855Z,102062.64
2018-02-05T12:49:48.556Z,102056.14
2018-02-05T12:52:20.243Z,102053.43
2018-02-05T12:54:50.937Z,102042.96
2018-02-05T12:57:24.314Z,102041.62
2018-02-05T13:02:39.384Z,102048.50
2018-02-05T13:05:10.622Z,102043.52
2018-02-05T13:07:42.660Z,102041.64
2018-02-05T13:10:14.959Z,102033.57
2018-02-05T13:12:51.883Z,102033.87
2018-02-05T13:15:22.797Z,102031.89
2018-02-05T13:17:53.748Z,102021.48
2018-02-05T13:20:25.273Z,102022.23
2018-02-05T13:22:55.734Z,102016.55
2018-02-05T13:25:26.491Z,101996.28
2018-02-05T13:27:56.764Z,102011.62
2018-02-05T13:30:27.782Z,102012.43
2018-02-05T13:33:09.493Z,102003.95
2018-02-05T13:35:42.074Z,102011.62
2018-02-05T13:38:15.164Z,102006.66
2018-02-05T13:40:45.654Z,102003.37
2018-02-05T13:43:17.002Z,101998.80
2018-02-05T13:45:49.997Z,102004.11
2018-02-05T13:48:22.008Z,102008.97
2018-02-05T13:50:52.450Z,101995.66
2018-02-05T13:53:22.700Z,101984.80
2018-02-05T13:55:53.326Z,101987.44
2018-02-05T13:58:27.923Z,101975.41
2018-02-05T14:00:59.305Z,101971.78
2018-02-05T14:03:31.503Z,101977.73
2018-02-05T14:06:05.158Z,101966.61
2018-02-05T14:08:36.588Z,101976.78
2018-02-05T14:11:15.557Z,101956.65
2018-02-05T14:13:46.899Z,101968.58
2018-02-05T14:16:17.359Z,101963.20
2018-02-05T14:18:54.165Z,101963.75
2018-02-05T14:21:30.422Z,101947.88
2018-02-05T14:24:03.132Z,101962.56
2018-02-05T14:26:35.704Z,101957.81
2018-02-05T14:29:16.469Z,101955.48
2018-02-05T14:31:49.612Z,101955.30
2018-02-05T14:34:20.775Z,101957.59
2018-02-05T14:39:48.630Z,101943.66
2018-02-05T14:42:19.837Z,101942.41
2018-02-05T14:44:50.679Z,101942.69
2018-02-05T14:47:21.725Z,101919.04
2018-02-05T14:49:55.362Z,101935.81
2018-02-05T14:52:33.495Z,101930.72
2018-02-05T14:55:07.073Z,101932.41
2018-02-05T14:57:48.197Z,101937.45
2018-02-05T15:00:19.303Z,101933.70
2018-02-05T15:02:52.526Z,101924.30
2018-02-05T15:05:24.317Z,101925.13
2018-02-05T15:07:55.218Z,101933.52
2018-02-05T15:10:26.248Z,101922.94
2018-02-05T15:12:56.689Z,101918.03
2018-02-05T15:15:27.611Z,101913.06
2018-02-05T15:17:58.855Z,101916.02
2018-02-05T15:20:30.351Z,101892.89
2018-02-05T15:23:01.770Z,101908.55
2018-02-05T15:25:32.582Z,101902.62
2018-02-05T15:28:03.683Z,101900.33
2018-02-05T15:30:43.730Z,101898.14
2018-02-05T15:33:18.346Z,101900.92
2018-02-05T15:35:49.695Z,101866.02
2018-02-05T15:38:21.850Z,101894.27
2018-02-05T15:40:55.267Z,101896.64
2018-02-05T15:43:31.317Z,101887.11
2018-02-05T15:46:03.158Z,101889.62
2018-02-05T15:48:34.045Z,101894.87
2018-02-05T15:51:05.164Z,101889.43
2018-02-05T15:53:36.176Z,101899.47
2018-02-05T15:56:08.488Z,101889.77
2018-02-05T15:58:41.022Z,101893.27
2018-02-05T16:01:12.860Z,101890.36
2018-02-05T16:03:43.950Z,101891.34
2018-02-05T16:06:18.113Z,101864.71
2018-02-05T16:08:49.486Z,101888.28
2018-02-05T16:11:20.916Z,101875.41
2018-02-05T16:13:52.794Z,101887.57
2018-02-05T16:16:23.635Z,101879.12
2018-02-05T16:18:56.754Z,101878.89
2018-02-05T16:21:27.894Z,101880.74
2018-02-05T16:23:58.428Z,101872.95
2018-02-05T16:26:36.848Z,101876.35
2018-02-05T16:29:08.769Z,101878.39
2018-02-05T16:31:40.670Z,101866.61
2018-02-05T16:34:14.538Z,101877.51
2018-02-05T16:36:45.024Z,101877.61
2018-02-05T16:39:17.955Z,101873.41
2018-02-05T16:41:50.085Z,101879.07
2018-02-05T16:44:21.652Z,101869.95
2018-02-05T16:46:58.449Z,101874.41
2018-02-05T16:49:38.893Z,101880.44
2018-02-05T16:52:10.908Z,101878.22
2018-02-05T16:54:43.291Z,101879.99
2018-02-05T16:57:15.880Z,101881.22
2018-02-05T16:59:47.760Z,101882.63
2018-02-05T17:02:25.419Z,101885.34
2018-02-05T17:04:55.672Z,101885.16
2018-02-05T17:07:30.769Z,101890.67
2018-02-05T17:10:03.372Z,101882.22
2018-02-05T17:12:34.611Z,101891.85
2018-02-05T17:15:09.484Z,101886.24
2018-02-05T17:17:42.795Z,101889.09
2018-02-05T17:20:14.682Z,101887.84
2018-02-05T17:22:49.041Z,101888.17
2018-02-05T17:25:20.091Z,101894.09
2018-02-05T17:27:52.123Z,101888.99
2018-02-05T17:30:28.428Z,101890.73
2018-02-05T17:33:00.207Z,101891.42
2018-02-05T17:35:31.557Z,101885.91
2018-02-05T17:40:43.782Z,101839.59
2018-02-05T17:43:15.042Z,101896.62
2018-02-05T17:45:46.997Z,101904.84
2018-02-05T17:48:17.989Z,101901.67
2018-02-05T17:50:53.047Z,101897.85
2018-02-05T17:53:23.940Z,101897.03
2018-02-05T17:55:55.152Z,101897.05
2018-02-05T17:58:25.863Z,101896.99
2018-02-05T18:00:57.460Z,101893.53
2018-02-05T18:03:28.329Z,101899.84
2018-02-05T18:05:59.914Z,101906.33
2018-02-05T18:08:32.047Z,101898.55
2018-02-05T18:11:03.653Z,101893.30
2018-02-05T18:13:35.253Z,101896.67
2018-02-05T18:16:06.435Z,101890.46
2018-02-05T18:18:38.364Z,101901.21
2018-02-05T18:21:10.266Z,101900.23
2018-02-05T18:23:47.189Z,101893.55
2018-02-05T18:26:19.548Z,101894.50
2018-02-05T18:28:52.835Z,101893.24
2018-02-05T18:31:24.132Z,101878.53
2018-02-05T18:33:55.058Z,101886.43
2018-02-05T18:36:26.078Z,101888.15
2018-02-05T18:39:00.726Z,101887.50
2018-02-05T18:41:32.489Z,101882.17
2018-02-05T18:44:06.899Z,101871.72
2018-02-05T18:46:39.389Z,101854.70
2018-02-05T18:49:11.436Z,101877.76
2018-02-05T18:51:43.516Z,101875.81
2018-02-05T18:54:16.930Z,101879.94
2018-02-05T18:56:48.591Z,101867.05
2018-02-05T18:59:21.543Z,101873.38
2018-02-05T19:02:02.944Z,101866.34
2018-02-05T19:04:39.463Z,101857.56
2018-02-05T19:07:12.449Z,101855.53
2018-02-05T19:09:44.729Z,101851.59
2018-02-05T19:12:17.428Z,101844.90
2018-02-05T19:14:48.821Z,101849.19
2018-02-05T19:17:20.618Z,101851.59
2018-02-05T19:19:51.660Z,101848.24
2018-02-05T19:22:23.331Z,101849.03
2018-02-05T19:24:54.775Z,101843.98
2018-02-05T19:27:28.267Z,101846.80
2018-02-05T19:30:00.906Z,101846.38
2018-02-05T19:32:35.574Z,101843.34
2018-02-05T19:35:08.052Z,101846.08
2018-02-05T19:37:39.899Z,101838.23
2018-02-05T19:40:12.467Z,101851.61
2018-02-05T19:42:45.439Z,101852.95
2018-02-05T19:45:20.829Z,101829.88
2018-02-05T19:47:54.995Z,101863.13
2018-02-05T19:50:34.157Z,101848.33
2018-02-05T19:53:07.816Z,101868.70
2018-02-05T19:55:40.182Z,101853.30
2018-02-05T19:58:15.268Z,101828.03
2018-02-05T20:00:47.103Z,101844.90
2018-02-05T20:03:19.488Z,101843.06
2018-02-05T20:05:52.439Z,101845.47
2018-02-05T20:08:23.522Z,101848.94
2018-02-05T20:10:56.166Z,101846.95
2018-02-05T20:13:27.666Z,101849.78
2018-02-05T20:15:59.503Z,101849.80
2018-02-05T20:18:30.365Z,101845.34
2018-02-05T20:21:02.027Z,101838.77
2018-02-05T20:23:33.114Z,101838.14
2018-02-05T20:26:04.534Z,101832.83
2018-02-05T20:28:35.844Z,101833.16
2018-02-05T20:31:07.023Z,101844.28
2018-02-05T20:33:37.865Z,101837.68
2018-02-05T20:36:09.736Z,101843.50
2018-02-05T20:38:41.065Z,101839.84
2018-02-05T20:41:12.342Z,101843.95
2018-02-05T20:43:43.398Z,101836.90
2018-02-05T20:46:16.560Z,101844.79
2018-02-05T20:48:49.366Z,101848.06
2018-02-05T20:51:20.689Z,101848.36
2018-02-05T20:53:57.527Z,101849.39
2018-02-05T20:56:29.489Z,101844.05
2018-02-05T20:59:02.174Z,101839.21
2018-02-05T21:04:23.865Z,101841.09
2018-02-05T21:07:00.382Z,101833.97
2018-02-05T21:09:31.790Z,101833.19
2018-02-05T21:12:03.255Z,101831.17
2018-02-05T21:14:34.577Z,101828.36
2018-02-05T21:17:06.392Z,101825.48
2018-02-05T21:19:38.495Z,101824.30
2018-02-05T21:22:10.378Z,101817.23
2018-02-05T21:24:41.249Z,101821.05
2018-02-05T21:27:12.541Z,101822.20
2018-02-05T21:29:43.861Z,101824.30
2018-02-05T21:32:15.622Z,101820.22
2018-02-05T21:34:47.257Z,101826.52
2018-02-05T21:37:18.405Z,101820.34
2018-02-05T21:39:50.514Z,101825.80
2018-02-05T21:42:22.186Z,101825.62
2018-02-05T21:44:53.029Z,101819.77
2018-02-05T21:47:24.048Z,101814.72
2018-02-05T21:49:55.294Z,101817.41
2018-02-05T21:52:27.276Z,101816.03
2018-02-05T21:54:58.160Z,101805.75
2018-02-05T21:57:29.752Z,101807.74
2018-02-05T22:00:06.135Z,101808.55
2018-02-05T22:02:40.831Z,101805.38
2018-02-05T22:05:13.087Z,101807.88
2018-02-05T22:07:44.770Z,101802.70
2018-02-05T22:10:15.710Z,101803.45
2018-02-05T22:12:48.100Z,101796.97
2018-02-05T22:15:22.520Z,101798.10
2018-02-05T22:17:53.882Z,101789.52
2018-02-05T22:20:25.485Z,101782.12
2018-02-05T22:22:56.467Z,101776.84
2018-02-05T22:25:33.579Z,101776.80
2018-02-05T22:28:17.061Z,101766.68
2018-02-05T22:30:48.898Z,101760.11
2018-02-05T22:33:20.054Z,101756.63
2018-02-05T22:35:51.215Z,101756.45
2018-02-05T22:38:22.088Z,101747.76
2018-02-05T22:40:53.295Z,101738.77
2018-02-05T22:43:25.969Z,101745.42
2018-02-05T22:45:58.058Z,101737.80
2018-02-05T22:48:29.876Z,101733.27
2018-02-05T22:51:02.912Z,101731.52
2018-02-05T22:53:33.933Z,101721.72
2018-02-05T22:56:05.835Z,101712.61
2018-02-05T22:58:37.900Z,101712.50
2018-02-05T23:01:10.359Z,101702.58
2018-02-05T23:03:43.145Z,101707.53
2018-02-05T23:06:14.455Z,101697.16
2018-02-05T23:08:46.536Z,101700.64
2018-02-05T23:11:19.410Z,101699.38
2018-02-05T23:13:51.052Z,101700.73
2018-02-05T23:16:26.306Z,101688.52
2018-02-05T23:18:59.476Z,101691.63
2018-02-05T23:21:30.475Z,101685.69
2018-02-05T23:24:01.853Z,101678.02
2018-02-05T23:26:33.180Z,101677.05
2018-02-05T23:29:05.481Z,101679.75
2018-02-05T23:31:38.211Z,101671.97
2018-02-05T23:34:09.577Z,101664.05
2018-02-05T23:36:41.944Z,101675.48
2018-02-05T23:39:13.758Z,101670.41
2018-02-05T23:41:44.480Z,101664.75
2018-02-05T23:44:15.901Z,101663.67
2018-02-05T23:46:47.033Z,101665.83
2018-02-05T23:49:17.894Z,101660.14
2018-02-05T23:51:50.154Z,101647.70
2018-02-05T23:54:21.897Z,101646.93
2018-02-05T23:56:52.687Z,101646.63
2018-02-05T23:59:23.564Z,101640.06
